createdAt,value
2023-01-15T00:00:03.890Z,11.3
2023-01-15T00:01:03.910Z,11.3
2023-01-15T00:02:03.821Z,11.3
2023-01-15T00:03:03.827Z,11.3
2023-01-15T00:04:03.871Z,11.3
2023-01-15T00:05:03.918Z,11.3
2023-01-15T00:06:03.824Z,11.3
2023-01-15T00:07:03.819Z,11.3
2023-01-15T00:08:03.912Z,11.3
2023-01-15T00:09:03.897Z,11.3
2023-01-15T00:10:03.934Z,11.3
2023-01-15T00:11:03.827Z,11.3
2023-01-15T00:12:03.842Z,11.3
2023-01-15T00:13:03.829Z,11.3
2023-01-15T00:14:03.885Z,11.3
2023-01-15T00:15:03.828Z,11.3
2023-01-15T00:16:03.885Z,11.3
2023-01-15T00:17:03.827Z,11.3
2023-01-15T00:18:03.837Z,11.3
2023-01-15T00:19:03.902Z,11.3
2023-01-15T00:20:03.838Z,11.4
2023-01-15T00:21:03.834Z,11.4
2023-01-15T00:22:03.873Z,11.4
2023-01-15T00:23:03.833Z,11.4
2023-01-15T00:24:03.968Z,11.5
2023-01-15T00:25:03.896Z,11.5
2023-01-15T00:26:03.891Z,11.5
2023-01-15T00:27:03.899Z,11.5
2023-01-15T00:28:03.853Z,11.5
2023-01-15T00:29:03.881Z,11.5
2023-01-15T00:30:03.908Z,11.5
2023-01-15T00:31:03.875Z,11.5
2023-01-15T00:32:03.847Z,11.5
2023-01-15T00:33:03.852Z,11.5
2023-01-15T00:34:03.923Z,11.6
2023-01-15T00:35:03.860Z,11.6
2023-01-15T00:36:03.912Z,11.6
2023-01-15T00:37:03.866Z,11.6
2023-01-15T00:38:03.866Z,11.6
2023-01-15T00:39:03.909Z,11.6
2023-01-15T00:40:03.947Z,11.5
2023-01-15T00:41:03.861Z,11.5
2023-01-15T00:42:03.952Z,11.5
2023-01-15T00:43:03.947Z,11.5
2023-01-15T00:44:03.920Z,11.5
2023-01-15T00:45:03.879Z,11.5
2023-01-15T00:46:03.983Z,11.5
2023-01-15T00:47:03.888Z,11.5
2023-01-15T00:48:03.897Z,11.5
2023-01-15T00:49:03.956Z,11.5
2023-01-15T00:50:03.938Z,11.5
2023-01-15T00:51:03.871Z,11.5
2023-01-15T00:52:03.950Z,11.5
2023-01-15T00:53:03.874Z,11.5
2023-01-15T00:54:03.888Z,11.5
2023-01-15T00:55:03.890Z,11.5
2023-01-15T00:56:03.882Z,11.5
2023-01-15T00:57:03.902Z,11.5
2023-01-15T00:58:03.963Z,11.5
2023-01-15T00:59:03.971Z,11.5
2023-01-15T01:00:03.889Z,11.6
2023-01-15T01:01:03.951Z,11.6
2023-01-15T01:02:03.922Z,11.6
2023-01-15T01:03:03.887Z,11.6
2023-01-15T01:04:03.905Z,11.6
2023-01-15T01:05:03.878Z,11.6
2023-01-15T01:06:03.888Z,11.6
2023-01-15T01:07:03.885Z,11.7
2023-01-15T01:08:03.881Z,11.7
2023-01-15T01:09:03.976Z,11.7
2023-01-15T01:10:03.882Z,11.7
2023-01-15T01:11:03.891Z,11.7
2023-01-15T01:12:03.971Z,11.7
2023-01-15T01:13:03.893Z,11.7
2023-01-15T01:14:03.894Z,11.7
2023-01-15T01:15:03.890Z,11.7
2023-01-15T01:16:03.916Z,11.7
2023-01-15T01:17:03.895Z,11.7
2023-01-15T01:18:03.886Z,11.7
2023-01-15T01:19:03.888Z,11.7
2023-01-15T01:20:03.895Z,11.7
2023-01-15T01:21:03.879Z,11.7
2023-01-15T01:22:03.960Z,11.7
2023-01-15T01:23:03.896Z,11.7
2023-01-15T01:24:03.893Z,11.7
2023-01-15T01:25:03.890Z,11.7
2023-01-15T01:26:03.893Z,11.7
2023-01-15T01:27:03.892Z,11.7
2023-01-15T01:28:03.894Z,11.7
2023-01-15T01:29:03.896Z,11.7
2023-01-15T01:30:03.897Z,11.7
2023-01-15T01:31:03.926Z,11.7
2023-01-15T01:32:03.904Z,11.7
2023-01-15T01:33:03.902Z,11.7
2023-01-15T01:34:03.938Z,11.7
2023-01-15T01:35:03.888Z,11.7
2023-01-15T01:36:03.891Z,11.7
2023-01-15T01:37:03.919Z,11.7
2023-01-15T01:38:03.881Z,11.7
2023-01-15T01:39:03.896Z,11.7
2023-01-15T01:40:03.889Z,11.7
2023-01-15T01:41:03.892Z,11.8
2023-01-15T01:42:03.909Z,11.8
2023-01-15T01:43:03.893Z,11.8
2023-01-15T01:44:03.960Z,11.8
2023-01-15T01:45:03.930Z,11.8
2023-01-15T01:46:03.931Z,11.8
2023-01-15T01:47:03.890Z,11.8
2023-01-15T01:48:03.905Z,11.8
2023-01-15T01:49:03.895Z,11.8
2023-01-15T01:50:03.888Z,11.8
2023-01-15T01:51:03.897Z,11.8
2023-01-15T01:52:03.940Z,11.8
2023-01-15T01:53:03.891Z,11.8
2023-01-15T01:54:03.911Z,11.7
2023-01-15T01:55:03.886Z,11.7
2023-01-15T01:56:03.987Z,11.7
2023-01-15T01:57:04.083Z,11.7
2023-01-15T01:58:03.917Z,11.7
2023-01-15T01:59:03.933Z,11.7
2023-01-15T02:00:03.917Z,11.7
2023-01-15T02:01:04.024Z,11.6
2023-01-15T02:02:03.999Z,11.6
2023-01-15T02:03:03.935Z,11.6
2023-01-15T02:04:03.936Z,11.5
2023-01-15T02:05:03.944Z,11.5
2023-01-15T02:06:03.889Z,11.5
2023-01-15T02:07:03.899Z,11.3
2023-01-15T02:08:03.886Z,11.3
2023-01-15T02:09:04.028Z,11.3
2023-01-15T02:10:03.891Z,11.3
2023-01-15T02:11:03.872Z,11.1
2023-01-15T02:12:03.870Z,11.1
2023-01-15T02:13:03.905Z,11.1
2023-01-15T02:14:03.888Z,11
2023-01-15T02:15:03.894Z,11
2023-01-15T02:16:03.995Z,11
2023-01-15T02:17:03.909Z,10.9
2023-01-15T02:18:04.156Z,10.9
2023-01-15T02:19:03.894Z,10.9
2023-01-15T02:20:03.903Z,10.9
2023-01-15T02:21:03.892Z,10.8
2023-01-15T02:22:03.882Z,10.8
2023-01-15T02:23:03.913Z,10.8
2023-01-15T02:24:03.902Z,10.7
2023-01-15T02:25:03.941Z,10.7
2023-01-15T02:26:03.883Z,10.7
2023-01-15T02:27:03.909Z,10.6
2023-01-15T02:28:03.943Z,10.6
2023-01-15T02:29:03.902Z,10.6
2023-01-15T02:30:03.883Z,10.6
2023-01-15T02:31:03.941Z,10.5
2023-01-15T02:32:03.928Z,10.5
2023-01-15T02:33:03.891Z,10.5
2023-01-15T02:34:03.930Z,10.5
2023-01-15T02:35:03.915Z,10.5
2023-01-15T02:36:03.953Z,10.5
2023-01-15T02:37:03.907Z,10.5
2023-01-15T02:38:03.891Z,10.5
2023-01-15T02:39:03.937Z,10.5
2023-01-15T02:40:03.917Z,10.5
2023-01-15T02:41:03.886Z,10.4
2023-01-15T02:42:03.906Z,10.4
2023-01-15T02:43:03.896Z,10.4
2023-01-15T02:44:03.897Z,10.4
2023-01-15T02:45:03.894Z,10.4
2023-01-15T02:46:03.944Z,10.4
2023-01-15T02:47:03.884Z,10.4
2023-01-15T02:48:03.876Z,10.4
2023-01-15T02:49:03.938Z,10.4
2023-01-15T02:50:03.904Z,10.4
2023-01-15T02:51:03.913Z,10.4
2023-01-15T02:52:03.892Z,10.4
2023-01-15T02:53:03.888Z,10.4
2023-01-15T02:54:03.912Z,10.3
2023-01-15T02:55:03.939Z,10.3
2023-01-15T02:56:03.886Z,10.3
2023-01-15T02:57:03.964Z,10.3
2023-01-15T02:58:03.927Z,10.3
2023-01-15T02:59:03.895Z,10.3
2023-01-15T03:00:03.916Z,10.3
2023-01-15T03:01:04.004Z,10.2
2023-01-15T03:02:04.113Z,10.2
2023-01-15T03:03:03.883Z,10.2
2023-01-15T03:04:03.895Z,10.2
2023-01-15T03:05:03.899Z,10.2
2023-01-15T03:06:03.894Z,10.2
2023-01-15T03:07:03.906Z,10.2
2023-01-15T03:08:03.938Z,10.2
2023-01-15T03:09:03.940Z,10.2
2023-01-15T03:10:03.875Z,10.2
2023-01-15T03:11:03.921Z,10.2
2023-01-15T03:12:03.890Z,10.2
2023-01-15T03:13:03.905Z,10.2
2023-01-15T03:14:04.046Z,10.2
2023-01-15T03:15:03.888Z,10.2
2023-01-15T03:16:03.881Z,10.2
2023-01-15T03:17:03.938Z,10.2
2023-01-15T03:18:03.894Z,10.2
2023-01-15T03:19:03.915Z,10.2
2023-01-15T03:20:03.889Z,10.2
2023-01-15T03:21:03.898Z,10.3
2023-01-15T03:22:03.944Z,10.3
2023-01-15T03:23:03.910Z,10.3
2023-01-15T03:24:03.958Z,10.3
2023-01-15T03:25:03.956Z,10.3
2023-01-15T03:26:03.883Z,10.3
2023-01-15T03:27:03.914Z,10.3
2023-01-15T03:28:03.880Z,10.4
2023-01-15T03:29:03.962Z,10.4
2023-01-15T03:30:03.948Z,10.4
2023-01-15T03:31:04.062Z,10.4
2023-01-15T03:32:03.946Z,10.4
2023-01-15T03:33:03.899Z,10.4
2023-01-15T03:34:03.974Z,10.5
2023-01-15T03:35:03.958Z,10.5
2023-01-15T03:36:03.961Z,10.5
2023-01-15T03:37:03.945Z,10.5
2023-01-15T03:38:03.906Z,10.5
2023-01-15T03:39:03.939Z,10.5
2023-01-15T03:40:03.943Z,10.5
2023-01-15T03:41:03.891Z,10.4
2023-01-15T03:42:03.898Z,10.4
2023-01-15T03:43:03.921Z,10.4
2023-01-15T03:44:03.940Z,10.4
2023-01-15T03:45:03.914Z,10.4
2023-01-15T03:46:03.953Z,10.4
2023-01-15T03:47:03.912Z,10.4
2023-01-15T03:48:03.918Z,10.4
2023-01-15T03:49:03.945Z,10.4
2023-01-15T03:50:03.899Z,10.4
2023-01-15T03:51:03.951Z,10.5
2023-01-15T03:52:03.894Z,10.5
2023-01-15T03:53:03.905Z,10.5
2023-01-15T03:54:03.985Z,10.6
2023-01-15T03:55:03.910Z,10.6
2023-01-15T03:56:03.892Z,10.6
2023-01-15T03:57:03.923Z,10.6
2023-01-15T03:58:03.896Z,10.6
2023-01-15T03:59:03.948Z,10.6
2023-01-15T04:00:03.896Z,10.6
2023-01-15T04:01:03.986Z,10.6
2023-01-15T04:02:04.054Z,10.6
2023-01-15T04:03:03.913Z,10.6
2023-01-15T04:04:04.002Z,10.5
2023-01-15T04:05:03.973Z,10.5
2023-01-15T04:06:03.917Z,10.5
2023-01-15T04:07:03.896Z,10.5
2023-01-15T04:08:03.959Z,10.5
2023-01-15T04:09:03.946Z,10.5
2023-01-15T04:10:03.952Z,10.5
2023-01-15T04:11:03.893Z,10.4
2023-01-15T04:12:03.963Z,10.4
2023-01-15T04:13:03.911Z,10.4
2023-01-15T04:14:03.943Z,10.4
2023-01-15T04:15:03.992Z,10.4
2023-01-15T04:16:04.061Z,10.4
2023-01-15T04:17:03.907Z,10.4
2023-01-15T04:18:03.953Z,10.4
2023-01-15T04:19:03.955Z,10.4
2023-01-15T04:20:03.917Z,10.4
2023-01-15T04:21:05.485Z,10.4
2023-01-15T04:22:03.917Z,10.4
2023-01-15T04:23:03.947Z,10.4
2023-01-15T04:24:03.959Z,10.5
2023-01-15T04:25:03.950Z,10.5
2023-01-15T04:26:03.948Z,10.5
2023-01-15T04:27:03.911Z,10.5
2023-01-15T04:28:03.905Z,10.5
2023-01-15T04:29:03.946Z,10.5
2023-01-15T04:30:03.970Z,10.5
2023-01-15T04:31:03.946Z,10.5
2023-01-15T04:32:03.905Z,10.5
2023-01-15T04:33:03.949Z,10.5
2023-01-15T04:34:03.960Z,10.5
2023-01-15T04:35:03.898Z,10.5
2023-01-15T04:36:03.916Z,10.5
2023-01-15T04:37:03.923Z,10.5
2023-01-15T04:38:03.929Z,10.5
2023-01-15T04:39:03.956Z,10.5
2023-01-15T04:40:03.958Z,10.5
2023-01-15T04:41:03.922Z,10.5
2023-01-15T04:42:03.930Z,10.5
2023-01-15T04:43:03.908Z,10.5
2023-01-15T04:44:03.954Z,10.5
2023-01-15T04:45:03.960Z,10.5
2023-01-15T04:46:03.949Z,10.5
2023-01-15T04:47:03.936Z,10.5
2023-01-15T04:48:03.920Z,10.5
2023-01-15T04:49:03.945Z,10.5
2023-01-15T04:50:03.933Z,10.5
2023-01-15T04:51:03.899Z,10.5
2023-01-15T04:52:03.918Z,10.5
2023-01-15T04:53:03.909Z,10.5
2023-01-15T04:54:03.921Z,10.4
2023-01-15T04:55:03.926Z,10.4
2023-01-15T04:56:03.955Z,10.4
2023-01-15T04:57:03.975Z,10.4
2023-01-15T04:58:03.962Z,10.3
2023-01-15T04:59:03.980Z,10.3
2023-01-15T05:00:03.924Z,10.3
2023-01-15T05:01:03.995Z,10.3
2023-01-15T05:02:06.501Z,10.3
2023-01-15T05:03:04.065Z,10.3
2023-01-15T05:04:04.026Z,10.2
2023-01-15T05:05:03.959Z,10.2
2023-01-15T05:06:03.934Z,10.2
2023-01-15T05:07:03.914Z,10.2
2023-01-15T05:08:03.922Z,10.1
2023-01-15T05:09:03.966Z,10.1
2023-01-15T05:10:03.927Z,10.1
2023-01-15T05:11:03.913Z,9.9
2023-01-15T05:12:03.935Z,9.9
2023-01-15T05:13:03.935Z,9.9
2023-01-15T05:14:03.926Z,9.6
2023-01-15T05:15:03.923Z,9.6
2023-01-15T05:16:03.944Z,9.6
2023-01-15T05:17:03.929Z,9.6
2023-01-15T05:18:03.934Z,9.4
2023-01-15T05:19:03.938Z,9.4
2023-01-15T05:20:03.921Z,9.4
2023-01-15T05:21:03.960Z,9.2
2023-01-15T05:22:03.928Z,9.2
2023-01-15T05:23:03.933Z,9.2
2023-01-15T05:24:03.977Z,9.1
2023-01-15T05:25:04.015Z,9.1
2023-01-15T05:26:04.003Z,9.1
2023-01-15T05:27:03.920Z,9.1
2023-01-15T05:28:03.943Z,8.9
2023-01-15T05:29:03.967Z,8.9
2023-01-15T05:30:03.918Z,8.9
2023-01-15T05:31:03.999Z,8.8
2023-01-15T05:32:03.938Z,8.8
2023-01-15T05:33:03.933Z,8.8
2023-01-15T05:34:03.966Z,8.7
2023-01-15T05:35:03.935Z,8.7
2023-01-15T05:36:03.953Z,8.7
2023-01-15T05:37:03.926Z,8.7
2023-01-15T05:38:03.956Z,8.7
2023-01-15T05:39:03.930Z,8.7
2023-01-15T05:40:03.942Z,8.7
2023-01-15T05:41:03.939Z,8.6
2023-01-15T05:42:03.944Z,8.6
2023-01-15T05:43:03.918Z,8.6
2023-01-15T05:44:03.973Z,8.6
2023-01-15T05:45:03.923Z,8.6
2023-01-15T05:46:03.976Z,8.6
2023-01-15T05:47:03.977Z,8.6
2023-01-15T05:48:03.922Z,8.6
2023-01-15T05:49:03.928Z,8.6
2023-01-15T05:50:03.931Z,8.6
2023-01-15T05:51:03.970Z,8.5
2023-01-15T05:52:03.924Z,8.5
2023-01-15T05:53:03.941Z,8.5
2023-01-15T05:54:03.937Z,8.5
2023-01-15T05:55:03.973Z,8.5
2023-01-15T05:56:03.945Z,8.5
2023-01-15T05:57:03.940Z,8.5
2023-01-15T05:58:03.975Z,8.5
2023-01-15T05:59:03.979Z,8.5
2023-01-15T06:00:03.981Z,8.5
2023-01-15T06:01:03.970Z,8.5
2023-01-15T06:02:03.930Z,8.5
2023-01-15T06:03:04.021Z,8.5
2023-01-15T06:04:04.009Z,8.5
2023-01-15T06:05:03.927Z,8.5
2023-01-15T06:06:03.929Z,8.5
2023-01-15T06:07:03.955Z,8.5
2023-01-15T06:08:03.937Z,8.5
2023-01-15T06:09:03.978Z,8.5
2023-01-15T06:10:03.916Z,8.5
2023-01-15T06:11:03.978Z,8.5
2023-01-15T06:12:03.964Z,8.5
2023-01-15T06:13:03.937Z,8.5
2023-01-15T06:14:03.988Z,8.5
2023-01-15T06:15:03.924Z,8.5
2023-01-15T06:16:04.027Z,8.5
2023-01-15T06:17:03.928Z,8.5
2023-01-15T06:18:03.980Z,8.5
2023-01-15T06:19:03.999Z,8.5
2023-01-15T06:20:03.958Z,8.5
2023-01-15T06:21:03.963Z,8.4
2023-01-15T06:22:03.941Z,8.4
2023-01-15T06:23:03.993Z,8.4
2023-01-15T06:24:03.988Z,8.4
2023-01-15T06:25:03.979Z,8.4
2023-01-15T06:26:03.979Z,8.4
2023-01-15T06:27:03.970Z,8.4
2023-01-15T06:28:04.020Z,8.4
2023-01-15T06:29:04.006Z,8.4
2023-01-15T06:30:03.943Z,8.4
2023-01-15T06:31:03.999Z,8.4
2023-01-15T06:32:03.940Z,8.4
2023-01-15T06:33:03.991Z,8.4
2023-01-15T06:34:03.985Z,8.4
2023-01-15T06:35:03.993Z,8.4
2023-01-15T06:36:03.988Z,8.4
2023-01-15T06:37:03.935Z,8.4
2023-01-15T06:38:03.956Z,8.4
2023-01-15T06:39:05.256Z,8.4
2023-01-15T06:40:03.985Z,8.4
2023-01-15T06:41:03.963Z,8.3
2023-01-15T06:42:03.959Z,8.3
2023-01-15T06:43:03.930Z,8.3
2023-01-15T06:44:03.988Z,8.3
2023-01-15T06:45:04.005Z,8.2
2023-01-15T06:46:04.008Z,8.2
2023-01-15T06:47:03.952Z,8.2
2023-01-15T06:48:03.960Z,8.1
2023-01-15T06:49:03.974Z,8.1
2023-01-15T06:50:03.924Z,8.1
2023-01-15T06:51:04.002Z,8
2023-01-15T06:52:03.997Z,8
2023-01-15T06:53:03.947Z,8
2023-01-15T06:54:04.002Z,8
2023-01-15T06:55:04.028Z,7.9
2023-01-15T06:56:03.954Z,7.9
2023-01-15T06:57:03.999Z,7.9
2023-01-15T06:58:04.014Z,7.8
2023-01-15T06:59:03.984Z,7.8
2023-01-15T07:00:03.977Z,7.8
2023-01-15T07:01:04.092Z,7.7
2023-01-15T07:02:03.957Z,7.7
2023-01-15T07:03:04.011Z,7.7
2023-01-15T07:04:04.050Z,7.7
2023-01-15T07:05:03.984Z,7.6
2023-01-15T07:06:03.927Z,7.6
2023-01-15T07:07:03.966Z,7.6
2023-01-15T07:08:03.989Z,7.5
2023-01-15T07:09:03.992Z,7.5
2023-01-15T07:10:03.993Z,7.5
2023-01-15T07:11:03.990Z,7.5
2023-01-15T07:12:03.970Z,7.5
2023-01-15T07:13:03.949Z,7.5
2023-01-15T07:14:03.988Z,7.5
2023-01-15T07:15:03.992Z,7.4
2023-01-15T07:16:04.112Z,7.4
2023-01-15T07:17:03.993Z,7.4
2023-01-15T07:18:04.048Z,7.3
2023-01-15T07:19:03.986Z,7.3
2023-01-15T07:20:03.992Z,7.3
2023-01-15T07:21:03.943Z,7.3
2023-01-15T07:22:03.963Z,7.3
2023-01-15T07:23:03.976Z,7.3
2023-01-15T07:24:04.011Z,7.3
2023-01-15T07:25:03.986Z,7.3
2023-01-15T07:26:03.977Z,7.3
2023-01-15T07:27:03.971Z,7.3
2023-01-15T07:28:03.990Z,7.2
2023-01-15T07:29:03.980Z,7.2
2023-01-15T07:30:03.967Z,7.2
2023-01-15T07:31:04.094Z,7.2
2023-01-15T07:32:03.964Z,7.2
2023-01-15T07:33:03.956Z,7.2
2023-01-15T07:34:03.985Z,7.2
2023-01-15T07:35:03.951Z,7.2
2023-01-15T07:36:03.983Z,7.2
2023-01-15T07:37:03.986Z,7.2
2023-01-15T07:38:04.001Z,7.1
2023-01-15T07:39:04.010Z,7.1
2023-01-15T07:40:03.992Z,7.1
2023-01-15T07:41:04.056Z,7.1
2023-01-15T07:42:03.980Z,7.1
2023-01-15T07:43:03.994Z,7.1
2023-01-15T07:44:04.037Z,7.1
2023-01-15T07:45:03.987Z,7.1
2023-01-15T07:46:04.190Z,7.1
2023-01-15T07:47:04.115Z,7.1
2023-01-15T07:48:04.006Z,7
2023-01-15T07:49:03.993Z,7
2023-01-15T07:50:03.990Z,7
2023-01-15T07:51:03.991Z,7
2023-01-15T07:52:04.010Z,7
2023-01-15T07:53:03.991Z,7
2023-01-15T07:54:04.026Z,7
2023-01-15T07:55:03.993Z,7
2023-01-15T07:56:04.076Z,7
2023-01-15T07:57:04.018Z,7
2023-01-15T07:58:04.096Z,6.9
2023-01-15T07:59:03.997Z,6.9
2023-01-15T08:00:04.007Z,6.9
2023-01-15T08:01:04.102Z,6.9
2023-01-15T08:02:04.127Z,6.9
2023-01-15T08:03:04.006Z,6.9
2023-01-15T08:04:04.041Z,6.9
2023-01-15T08:05:04.005Z,6.9
2023-01-15T08:06:04.114Z,6.9
2023-01-15T08:07:04.039Z,6.9
2023-01-15T08:08:04.030Z,6.8
2023-01-15T08:09:04.022Z,6.8
2023-01-15T08:10:04.027Z,6.8
2023-01-15T08:11:04.038Z,6.8
2023-01-15T08:12:04.057Z,6.8
2023-01-15T08:13:04.112Z,6.8
2023-01-15T08:14:04.085Z,6.8
2023-01-15T08:15:04.093Z,6.8
2023-01-15T08:16:04.060Z,6.8
2023-01-15T08:17:04.102Z,6.8
2023-01-15T08:18:04.120Z,6.8
2023-01-15T08:19:04.123Z,6.8
2023-01-15T08:20:04.064Z,6.8
2023-01-15T08:21:04.052Z,6.8
2023-01-15T08:22:04.069Z,6.7
2023-01-15T08:23:04.111Z,6.7
2023-01-15T08:24:04.054Z,6.7
2023-01-15T08:25:04.066Z,6.6
2023-01-15T08:26:04.076Z,6.6
2023-01-15T08:27:04.071Z,6.6
2023-01-15T08:28:04.062Z,6.6
2023-01-15T08:29:04.102Z,6.6
2023-01-15T08:30:04.066Z,6.6
2023-01-15T08:31:04.117Z,6.6
2023-01-15T08:32:04.102Z,6.6
2023-01-15T08:33:04.067Z,6.6
2023-01-15T08:34:04.160Z,6.6
2023-01-15T08:35:04.100Z,6.6
2023-01-15T08:36:04.055Z,6.6
2023-01-15T08:37:04.041Z,6.6
2023-01-15T08:38:04.162Z,6.6
2023-01-15T08:39:04.229Z,6.6
2023-01-15T08:40:04.067Z,6.6
2023-01-15T08:41:04.087Z,6.6
2023-01-15T08:42:04.068Z,6.6
2023-01-15T08:43:04.076Z,6.6
2023-01-15T08:44:04.059Z,6.6
2023-01-15T08:45:04.075Z,6.6
2023-01-15T08:46:04.096Z,6.6
2023-01-15T08:47:04.076Z,6.6
2023-01-15T08:48:04.102Z,6.6
2023-01-15T08:49:05.849Z,6.6
2023-01-15T08:50:04.182Z,6.6
2023-01-15T08:51:04.140Z,6.6
2023-01-15T08:52:04.062Z,6.6
2023-01-15T08:53:04.130Z,6.5
2023-01-15T08:54:04.145Z,6.5
2023-01-15T08:55:04.060Z,6.5
2023-01-15T08:56:04.055Z,6.4
2023-01-15T08:57:04.060Z,6.4
2023-01-15T08:58:04.069Z,6.4
2023-01-15T08:59:04.106Z,6.4
2023-01-15T09:00:04.136Z,6.4
2023-01-15T09:01:04.194Z,6.4
2023-01-15T09:02:04.202Z,6.4
2023-01-15T09:03:04.072Z,6.4
2023-01-15T09:04:04.107Z,6.4
2023-01-15T09:05:04.280Z,6.4
2023-01-15T09:06:04.056Z,6.4
2023-01-15T09:07:04.123Z,6.3
2023-01-15T09:08:04.091Z,6.3
2023-01-15T09:09:04.077Z,6.3
2023-01-15T09:10:04.069Z,6.3
2023-01-15T09:11:04.113Z,6.3
2023-01-15T09:12:04.068Z,6.3
2023-01-15T09:13:04.078Z,6.3
2023-01-15T09:14:04.086Z,6.3
2023-01-15T09:15:04.074Z,6.3
2023-01-15T09:16:04.065Z,6.3
2023-01-15T09:17:04.054Z,6.3
2023-01-15T09:18:04.082Z,6.3
2023-01-15T09:19:04.098Z,6.3
2023-01-15T09:20:04.357Z,6.3
2023-01-15T09:21:04.051Z,6.3
2023-01-15T09:22:04.055Z,6.3
2023-01-15T09:23:04.058Z,6.3
2023-01-15T09:24:04.064Z,6.3
2023-01-15T09:25:04.068Z,6.3
2023-01-15T09:26:04.049Z,6.3
2023-01-15T09:27:04.099Z,6.2
2023-01-15T09:28:04.055Z,6.2
2023-01-15T09:29:04.158Z,6.2
2023-01-15T09:30:04.203Z,6.2
2023-01-15T09:31:04.107Z,6.2
2023-01-15T09:32:04.059Z,6.2
2023-01-15T09:33:04.072Z,6.2
2023-01-15T09:34:04.075Z,6.2
2023-01-15T09:35:04.074Z,6.2
2023-01-15T09:36:04.067Z,6.2
2023-01-15T09:37:04.077Z,6.2
2023-01-15T09:38:04.084Z,6.2
2023-01-15T09:39:04.079Z,6.2
2023-01-15T09:40:04.074Z,6.2
2023-01-15T09:41:04.074Z,6.1
2023-01-15T09:42:04.075Z,6.1
2023-01-15T09:43:04.060Z,6.1
2023-01-15T09:44:04.081Z,6.1
2023-01-15T09:45:04.076Z,6.1
2023-01-15T09:46:04.122Z,6.1
2023-01-15T09:47:04.054Z,6.1
2023-01-15T09:48:04.070Z,6.1
2023-01-15T09:49:04.095Z,6.1
2023-01-15T09:50:04.083Z,6.1
2023-01-15T09:51:04.076Z,6
2023-01-15T09:52:04.050Z,6
2023-01-15T09:53:04.071Z,6
2023-01-15T09:54:04.085Z,6
2023-01-15T09:55:04.112Z,6
2023-01-15T09:56:04.080Z,6
2023-01-15T09:57:04.107Z,6
2023-01-15T09:58:04.078Z,6
2023-01-15T09:59:04.126Z,6
2023-01-15T10:00:04.087Z,6
2023-01-15T10:01:04.126Z,5.9
2023-01-15T10:02:04.100Z,5.9
2023-01-15T10:03:04.173Z,5.9
2023-01-15T10:04:04.128Z,5.9
2023-01-15T10:05:05.569Z,5.9
2023-01-15T10:06:04.104Z,5.9
2023-01-15T10:07:04.143Z,5.8
2023-01-15T10:08:04.125Z,5.8
2023-01-15T10:09:04.106Z,5.8
2023-01-15T10:10:04.113Z,5.8
2023-01-15T10:11:04.128Z,5.8
2023-01-15T10:12:04.124Z,5.8
2023-01-15T10:13:04.139Z,5.8
2023-01-15T10:14:04.155Z,5.8
2023-01-15T10:15:04.130Z,5.8
2023-01-15T10:16:04.187Z,5.8
2023-01-15T10:17:04.115Z,5.7
2023-01-15T10:18:04.101Z,5.7
2023-01-15T10:19:04.146Z,5.7
2023-01-15T10:20:04.113Z,5.7
2023-01-15T10:21:04.119Z,5.7
2023-01-15T10:22:04.138Z,5.7
2023-01-15T10:23:04.120Z,5.7
2023-01-15T10:24:04.130Z,5.7
2023-01-15T10:25:04.150Z,5.7
2023-01-15T10:26:04.151Z,5.7
2023-01-15T10:27:04.135Z,5.7
2023-01-15T10:28:04.101Z,5.7
2023-01-15T10:29:04.132Z,5.7
2023-01-15T10:30:04.137Z,5.7
2023-01-15T10:31:04.152Z,5.7
2023-01-15T10:32:04.150Z,5.7
2023-01-15T10:33:04.139Z,5.7
2023-01-15T10:34:04.114Z,5.7
2023-01-15T10:35:04.149Z,5.7
2023-01-15T10:36:04.125Z,5.7
2023-01-15T10:37:04.137Z,5.7
2023-01-15T10:38:04.176Z,5.7
2023-01-15T10:39:04.156Z,5.7
2023-01-15T10:40:04.162Z,5.7
2023-01-15T10:41:04.175Z,5.7
2023-01-15T10:42:04.138Z,5.7
2023-01-15T10:43:04.149Z,5.7
2023-01-15T10:44:04.172Z,5.7
2023-01-15T10:45:04.214Z,5.7
2023-01-15T10:46:04.190Z,5.7
2023-01-15T10:47:04.158Z,5.7
2023-01-15T10:48:04.214Z,5.7
2023-01-15T10:49:04.180Z,5.7
2023-01-15T10:50:04.175Z,5.7
2023-01-15T10:51:04.164Z,5.7
2023-01-15T10:52:04.192Z,5.7
2023-01-15T10:53:04.172Z,5.7
2023-01-15T10:54:04.186Z,5.7
2023-01-15T10:55:04.177Z,5.7
2023-01-15T10:56:04.179Z,5.7
2023-01-15T10:57:04.186Z,5.6
2023-01-15T10:58:10.825Z,5.6
2023-01-15T10:59:04.142Z,5.6
2023-01-15T11:00:04.206Z,5.6
2023-01-15T11:01:04.326Z,5.6
2023-01-15T11:02:04.262Z,5.6
2023-01-15T11:03:04.237Z,5.6
2023-01-15T11:04:04.156Z,5.6
2023-01-15T11:05:04.195Z,5.6
2023-01-15T11:06:04.175Z,5.6
2023-01-15T11:07:04.157Z,5.6
2023-01-15T11:08:36.841Z,5.6
2023-01-15T11:09:10.132Z,5.6
2023-01-15T11:10:04.145Z,5.6
2023-01-15T11:11:04.155Z,5.6
2023-01-15T11:12:04.196Z,5.6
2023-01-15T11:13:04.141Z,5.6
2023-01-15T11:14:04.164Z,5.6
2023-01-15T11:15:04.160Z,5.6
2023-01-15T11:16:04.283Z,5.6
2023-01-15T11:17:04.139Z,5.6
2023-01-15T11:18:04.160Z,5.6
2023-01-15T11:19:04.157Z,5.6
2023-01-15T11:20:04.164Z,5.6
2023-01-15T11:21:04.163Z,5.6
2023-01-15T11:22:04.163Z,5.6
2023-01-15T11:23:04.182Z,5.6
2023-01-15T11:24:04.157Z,5.6
2023-01-15T11:25:04.176Z,5.6
2023-01-15T11:26:04.147Z,5.6
2023-01-15T11:27:04.155Z,5.5
2023-01-15T11:28:04.166Z,5.5
2023-01-15T11:29:04.168Z,5.5
2023-01-15T11:30:04.196Z,5.5
2023-01-15T11:31:04.295Z,5.5
2023-01-15T11:32:04.206Z,5.5
2023-01-15T11:33:04.313Z,5.5
2023-01-15T11:34:04.141Z,5.5
2023-01-15T11:35:04.187Z,5.5
2023-01-15T11:36:04.162Z,5.5
2023-01-15T11:37:04.210Z,5.5
2023-01-15T11:38:04.156Z,5.5
2023-01-15T11:39:04.140Z,5.5
2023-01-15T11:40:04.185Z,5.5
2023-01-15T11:41:04.181Z,5.4
2023-01-15T11:42:04.179Z,5.4
2023-01-15T11:43:04.152Z,5.4
2023-01-15T11:44:04.154Z,5.4
2023-01-15T11:45:04.154Z,5.4
2023-01-15T11:46:04.203Z,5.4
2023-01-15T11:47:04.177Z,5.4
2023-01-15T11:48:04.156Z,5.4
2023-01-15T11:49:04.226Z,5.4
2023-01-15T11:50:04.214Z,5.4
2023-01-15T11:51:04.313Z,5.4
2023-01-15T11:52:04.288Z,5.4
2023-01-15T11:53:04.163Z,5.4
2023-01-15T11:54:04.172Z,5.3
2023-01-15T11:55:04.179Z,5.3
2023-01-15T11:56:04.157Z,5.3
2023-01-15T11:57:04.153Z,5.3
2023-01-15T11:58:04.167Z,5.3
2023-01-15T11:59:04.201Z,5.3
2023-01-15T12:00:04.171Z,5.3
2023-01-15T12:01:04.208Z,5.3
2023-01-15T12:02:04.175Z,5.3
2023-01-15T12:03:04.169Z,5.3
2023-01-15T12:04:04.312Z,5.1
2023-01-15T12:05:04.200Z,5.1
2023-01-15T12:06:04.186Z,5.1
2023-01-15T12:07:04.153Z,5.1
2023-01-15T12:08:04.189Z,4.8
2023-01-15T12:09:04.164Z,4.8
2023-01-15T12:10:04.202Z,4.8
2023-01-15T12:11:14.165Z,4.6
2023-01-15T12:12:04.150Z,4.6
2023-01-15T12:13:04.190Z,4.6
2023-01-15T12:14:04.176Z,4.4
2023-01-15T12:15:04.187Z,4.4
2023-01-15T12:16:04.244Z,4.4
2023-01-15T12:17:04.152Z,4.4
2023-01-15T12:18:04.189Z,4.3
2023-01-15T12:19:04.155Z,4.3
2023-01-15T12:20:04.215Z,4.3
2023-01-15T12:21:04.190Z,4.3
2023-01-15T12:22:04.175Z,4.3
2023-01-15T12:23:04.172Z,4.3
2023-01-15T12:24:04.179Z,4.3
2023-01-15T12:25:04.165Z,4.3
2023-01-15T12:26:04.172Z,4.3
2023-01-15T12:27:05.783Z,4.3
2023-01-15T12:28:04.161Z,4.2
2023-01-15T12:29:04.181Z,4.2
2023-01-15T12:30:04.189Z,4.2
2023-01-15T12:31:04.221Z,4
2023-01-15T12:32:04.185Z,4
2023-01-15T12:33:04.157Z,4
2023-01-15T12:34:04.176Z,3.9
2023-01-15T12:35:04.195Z,3.9
2023-01-15T12:36:04.173Z,3.9
2023-01-15T12:37:04.175Z,3.9
2023-01-15T12:38:04.173Z,3.8
2023-01-15T12:39:04.167Z,3.8
2023-01-15T12:40:04.189Z,3.8
2023-01-15T12:41:04.175Z,3.7
2023-01-15T12:42:04.173Z,3.7
2023-01-15T12:43:04.184Z,3.7
2023-01-15T12:44:04.161Z,3.6
2023-01-15T12:45:04.499Z,3.6
2023-01-15T12:46:04.162Z,3.6
2023-01-15T12:47:04.169Z,3.6
2023-01-15T12:48:04.161Z,3.5
2023-01-15T12:49:04.213Z,3.5
2023-01-15T12:50:04.194Z,3.5
2023-01-15T12:51:04.183Z,3.5
2023-01-15T12:52:04.174Z,3.5
2023-01-15T12:53:04.170Z,3.5
2023-01-15T12:54:04.169Z,3.5
2023-01-15T12:55:04.186Z,3.5
2023-01-15T12:56:04.166Z,3.5
2023-01-15T12:57:04.174Z,3.5
2023-01-15T12:58:04.180Z,3.5
2023-01-15T12:59:04.181Z,3.5
2023-01-15T13:00:04.181Z,3.5
2023-01-15T13:01:04.264Z,3.5
2023-01-15T13:02:04.313Z,3.5
2023-01-15T13:03:04.171Z,3.5
2023-01-15T13:04:04.183Z,3.4
2023-01-15T13:05:04.191Z,3.4
2023-01-15T13:06:04.171Z,3.4
2023-01-15T13:07:04.161Z,3.4
2023-01-15T13:08:04.192Z,3.4
2023-01-15T13:09:04.175Z,3.4
2023-01-15T13:10:04.176Z,3.4
2023-01-15T13:11:04.243Z,3.4
2023-01-15T13:12:04.193Z,3.4
2023-01-15T13:13:04.186Z,3.4
2023-01-15T13:14:04.175Z,3.4
2023-01-15T13:15:04.176Z,3.4
2023-01-15T13:16:04.233Z,3.4
2023-01-15T13:17:04.201Z,3.4
2023-01-15T13:18:04.172Z,3.4
2023-01-15T13:19:04.160Z,3.4
2023-01-15T13:20:04.199Z,3.4
2023-01-15T13:21:04.196Z,3.4
2023-01-15T13:22:04.193Z,3.4
2023-01-15T13:23:04.174Z,3.4
2023-01-15T13:24:04.188Z,3.4
2023-01-15T13:25:04.187Z,3.4
2023-01-15T13:26:04.194Z,3.4
2023-01-15T13:27:04.177Z,3.4
2023-01-15T13:28:04.190Z,3.3
2023-01-15T13:29:04.221Z,3.3
2023-01-15T13:30:04.227Z,3.3
2023-01-15T13:31:04.204Z,3.3
2023-01-15T13:32:04.202Z,3.3
2023-01-15T13:33:04.204Z,3.3
2023-01-15T13:34:04.203Z,3.3
2023-01-15T13:35:04.208Z,3.3
2023-01-15T13:36:04.189Z,3.3
2023-01-15T13:37:04.235Z,3.3